createdAt,value
2019-05-20T00:00:51.176Z,42.50
2019-05-20T00:03:37.957Z,42.60
2019-05-20T00:06:24.779Z,42.50
2019-05-20T00:09:11.092Z,42.50
2019-05-20T00:11:58.043Z,42.60
2019-05-20T00:14:46.277Z,42.60
2019-05-20T00:17:33.490Z,42.60
2019-05-20T00:20:21.487Z,42.70
2019-05-20T00:23:08.351Z,42.70
2019-05-20T00:25:54.972Z,42.80
2019-05-20T00:28:41.401Z,42.70
2019-05-20T00:31:27.833Z,42.80
2019-05-20T00:34:14.003Z,42.80
2019-05-20T00:37:00.623Z,42.90
2019-05-20T00:39:46.951Z,42.90
2019-05-20T00:42:33.231Z,43.00
2019-05-20T00:45:19.766Z,43.00
2019-05-20T00:48:06.043Z,43.00
2019-05-20T00:50:52.301Z,43.00
2019-05-20T00:53:38.669Z,43.20
2019-05-20T00:56:25.059Z,43.30
2019-05-20T00:59:11.360Z,43.30
2019-05-20T01:01:58.348Z,43.40
2019-05-20T01:04:44.599Z,43.40
2019-05-20T01:07:30.897Z,43.50
2019-05-20T01:10:17.503Z,43.50
2019-05-20T01:13:04.124Z,43.60
2019-05-20T01:15:50.735Z,43.70
2019-05-20T01:18:37.286Z,43.80
2019-05-20T01:21:23.742Z,43.80
2019-05-20T01:24:10.127Z,43.90
2019-05-20T01:26:56.423Z,43.80
2019-05-20T01:29:42.911Z,43.90
2019-05-20T01:32:29.433Z,44.00
2019-05-20T01:35:15.933Z,43.90
2019-05-20T01:38:02.338Z,44.00
2019-05-20T01:40:48.722Z,44.00
2019-05-20T01:43:35.032Z,44.10
2019-05-20T01:46:21.251Z,44.10
2019-05-20T01:49:07.684Z,44.20
2019-05-20T01:51:54.128Z,44.20
2019-05-20T01:54:40.811Z,44.30
2019-05-20T01:57:27.096Z,44.20
2019-05-20T02:00:15.071Z,44.30
2019-05-20T02:03:01.764Z,44.50
2019-05-20T02:05:48.133Z,44.50
2019-05-20T02:08:34.431Z,44.50
2019-05-20T02:11:20.810Z,44.50
2019-05-20T02:14:11.584Z,44.60
2019-05-20T02:16:58.180Z,44.70
2019-05-20T02:19:44.462Z,44.70
2019-05-20T02:22:30.789Z,44.70
2019-05-20T02:25:17.725Z,44.70
2019-05-20T02:28:04.005Z,44.70
2019-05-20T02:30:50.403Z,44.80
2019-05-20T02:33:51.125Z,44.80
2019-05-20T02:36:25.167Z,44.80
2019-05-20T02:39:11.517Z,44.80
2019-05-20T02:41:57.838Z,45.00
2019-05-20T02:44:44.052Z,44.90
2019-05-20T02:47:30.457Z,44.90
2019-05-20T02:50:17.485Z,44.90
2019-05-20T02:53:04.205Z,44.90
2019-05-20T02:55:50.527Z,45.00
2019-05-20T02:58:37.470Z,45.00
2019-05-20T03:01:23.846Z,45.00
2019-05-20T03:04:12.639Z,45.10
2019-05-20T03:06:58.702Z,45.20
2019-05-20T03:09:45.430Z,45.30
2019-05-20T03:12:31.763Z,45.20
2019-05-20T03:15:18.748Z,45.20
2019-05-20T03:18:05.049Z,45.20
2019-05-20T03:20:51.837Z,45.20
2019-05-20T03:23:38.361Z,45.20
2019-05-20T03:26:25.082Z,45.30
2019-05-20T03:29:11.482Z,45.30
2019-05-20T03:31:58.319Z,45.40
2019-05-20T03:34:51.285Z,45.40
2019-05-20T03:37:33.023Z,45.40
2019-05-20T03:40:19.504Z,45.50
2019-05-20T03:43:06.245Z,45.60
2019-05-20T03:45:52.534Z,46.30
2019-05-20T03:48:38.947Z,45.60
2019-05-20T03:51:25.311Z,45.70
2019-05-20T03:54:11.742Z,45.90
2019-05-20T03:56:58.154Z,45.90
2019-05-20T03:59:44.602Z,45.50
2019-05-20T04:02:31.287Z,46.00
2019-05-20T04:05:17.721Z,46.00
2019-05-20T04:08:04.045Z,46.00
2019-05-20T04:10:50.385Z,46.00
2019-05-20T04:13:37.590Z,46.10
2019-05-20T04:16:24.362Z,46.00
2019-05-20T04:19:10.731Z,46.10
2019-05-20T04:21:57.795Z,46.20
2019-05-20T04:24:44.245Z,46.20
2019-05-20T04:27:31.095Z,46.20
2019-05-20T04:30:19.190Z,46.20
2019-05-20T04:33:05.776Z,46.30
2019-05-20T04:35:52.655Z,46.30
2019-05-20T04:38:39.138Z,46.50
2019-05-20T04:41:25.867Z,46.50
2019-05-20T04:44:13.746Z,46.60
2019-05-20T04:47:00.131Z,46.70
2019-05-20T04:49:47.971Z,46.70
2019-05-20T04:52:34.473Z,46.80
2019-05-20T04:55:21.234Z,46.80
2019-05-20T04:58:08.130Z,46.90
2019-05-20T05:00:57.412Z,47.00
2019-05-20T05:03:44.077Z,47.10
2019-05-20T05:06:31.012Z,47.00
2019-05-20T05:09:17.421Z,47.00
2019-05-20T05:12:04.351Z,47.10
2019-05-20T05:14:51.085Z,47.10
2019-05-20T05:17:37.968Z,47.10
2019-05-20T05:20:24.379Z,47.10
2019-05-20T05:23:10.983Z,47.10
2019-05-20T05:25:57.931Z,47.20
2019-05-20T05:28:46.802Z,47.20
2019-05-20T05:31:33.190Z,47.20
2019-05-20T05:34:20.202Z,47.30
2019-05-20T05:37:06.993Z,47.30
2019-05-20T05:39:54.032Z,47.50
2019-05-20T05:42:41.084Z,47.50
2019-05-20T05:45:32.254Z,47.60
2019-05-20T05:48:18.769Z,47.80
2019-05-20T05:51:05.794Z,47.60
2019-05-20T05:53:53.382Z,47.60
2019-05-20T05:56:40.133Z,47.70
2019-05-20T05:59:26.407Z,47.80
2019-05-20T06:02:13.149Z,47.80
2019-05-20T06:05:01.038Z,47.70
2019-05-20T06:07:47.732Z,47.90
2019-05-20T06:10:35.822Z,47.90
2019-05-20T06:13:23.747Z,47.90
2019-05-20T06:16:10.692Z,47.80
2019-05-20T06:18:57.646Z,47.80
2019-05-20T06:21:44.637Z,47.80
2019-05-20T06:24:31.616Z,47.80
2019-05-20T06:27:18.401Z,47.80
2019-05-20T06:30:06.438Z,47.80
2019-05-20T06:32:53.288Z,48.00
2019-05-20T06:35:40.079Z,48.00
2019-05-20T06:38:46.041Z,48.00
2019-05-20T06:41:32.657Z,47.90
2019-05-20T06:44:19.462Z,48.00
2019-05-20T06:47:06.342Z,48.00
2019-05-20T06:49:55.016Z,48.00
2019-05-20T06:52:44.243Z,48.00
2019-05-20T06:55:33.284Z,47.80
2019-05-20T06:58:20.163Z,47.70
2019-05-20T07:01:07.098Z,47.70
2019-05-20T07:03:54.088Z,47.60
2019-05-20T07:06:46.675Z,47.60
2019-05-20T07:09:29.858Z,47.60
2019-05-20T07:12:16.429Z,47.50
2019-05-20T07:15:10.002Z,47.50
2019-05-20T07:17:53.679Z,47.50
2019-05-20T07:20:41.481Z,47.50
2019-05-20T07:23:29.497Z,47.40
2019-05-20T07:26:16.570Z,47.40
2019-05-20T07:29:03.301Z,47.30
2019-05-20T07:31:50.484Z,47.30
2019-05-20T07:34:37.246Z,47.40
2019-05-20T07:37:24.178Z,47.40
2019-05-20T07:40:11.430Z,47.40
2019-05-20T07:42:58.563Z,47.50
2019-05-20T07:45:45.913Z,47.50
2019-05-20T07:48:33.491Z,47.40
2019-05-20T07:51:21.125Z,47.50
2019-05-20T07:54:08.410Z,47.60
2019-05-20T07:57:00.396Z,47.50
2019-05-20T07:59:50.074Z,47.40
2019-05-20T08:02:37.599Z,47.40
2019-05-20T08:05:24.309Z,47.30
2019-05-20T08:08:11.339Z,47.90
2019-05-20T08:10:58.059Z,47.10
2019-05-20T08:13:45.033Z,47.10
2019-05-20T08:16:32.258Z,46.90
2019-05-20T08:19:20.659Z,47.00
2019-05-20T08:22:07.279Z,46.90
2019-05-20T08:24:54.465Z,46.90
2019-05-20T08:27:41.266Z,46.90
2019-05-20T08:30:36.403Z,46.70
2019-05-20T08:33:25.322Z,46.80
2019-05-20T08:36:12.046Z,46.60
2019-05-20T08:38:59.162Z,46.70
2019-05-20T08:41:46.028Z,46.60
2019-05-20T08:44:34.189Z,46.50
2019-05-20T08:47:20.921Z,46.50
2019-05-20T08:50:13.224Z,46.60
2019-05-20T08:52:57.202Z,46.60
2019-05-20T08:55:45.934Z,46.50
2019-05-20T08:58:32.901Z,46.60
2019-05-20T09:01:20.983Z,46.50
2019-05-20T09:04:08.797Z,46.70
2019-05-20T09:06:55.443Z,46.50
2019-05-20T09:09:42.649Z,46.40
2019-05-20T09:12:29.439Z,46.50
2019-05-20T09:15:16.974Z,46.20
2019-05-20T09:18:03.628Z,46.20
2019-05-20T09:20:50.420Z,46.20
2019-05-20T09:23:37.429Z,46.10
2019-05-20T09:26:25.319Z,46.20
2019-05-20T09:29:13.413Z,46.30
2019-05-20T09:32:00.013Z,46.10
2019-05-20T09:34:47.672Z,46.20
2019-05-20T09:37:34.596Z,46.20
2019-05-20T09:40:43.399Z,46.30
2019-05-20T09:43:31.681Z,46.50
2019-05-20T09:46:19.734Z,46.40
2019-05-20T09:49:06.569Z,46.40
2019-05-20T09:51:53.498Z,46.60
2019-05-20T09:54:40.356Z,46.70
2019-05-20T09:57:29.047Z,46.80
2019-05-20T10:00:16.576Z,47.10
2019-05-20T10:03:04.043Z,47.10
2019-05-20T10:06:08.681Z,47.40
2019-05-20T10:08:57.306Z,47.40
2019-05-20T10:11:44.200Z,47.40
2019-05-20T10:14:32.296Z,47.50
2019-05-20T10:17:18.914Z,47.70
2019-05-20T10:20:06.528Z,47.70
2019-05-20T10:22:56.680Z,47.60
2019-05-20T10:25:43.650Z,47.60
2019-05-20T10:28:30.475Z,47.60
2019-05-20T10:31:17.202Z,47.70
2019-05-20T10:34:06.538Z,47.60
2019-05-20T10:36:53.593Z,47.60
2019-05-20T10:39:41.901Z,47.50
2019-05-20T10:42:28.559Z,47.50
2019-05-20T10:45:16.055Z,47.40
2019-05-20T10:48:02.876Z,47.40
2019-05-20T10:50:49.747Z,47.30
2019-05-20T10:53:36.743Z,47.40
2019-05-20T10:56:24.685Z,47.40
2019-05-20T10:59:12.340Z,47.40
2019-05-20T11:01:59.271Z,47.50
2019-05-20T11:04:46.428Z,47.60
2019-05-20T11:07:33.329Z,47.70
2019-05-20T11:10:20.146Z,47.60
2019-05-20T11:13:06.878Z,47.50
2019-05-20T11:15:53.898Z,47.50
2019-05-20T11:18:43.112Z,47.40
2019-05-20T11:21:31.968Z,47.40
2019-05-20T11:24:18.947Z,47.30
2019-05-20T11:27:05.817Z,47.30
2019-05-20T11:29:54.137Z,47.30
2019-05-20T11:32:41.062Z,47.50
2019-05-20T11:35:27.714Z,47.50
2019-05-20T11:38:14.681Z,47.50
2019-05-20T11:44:11.981Z,47.80
2019-05-20T11:46:59.045Z,47.90
2019-05-20T11:49:45.738Z,48.00
2019-05-20T11:52:32.860Z,48.10
2019-05-20T11:55:19.854Z,48.20
2019-05-20T11:58:15.770Z,48.30
2019-05-20T12:00:55.498Z,48.30
2019-05-20T12:03:42.639Z,48.40
2019-05-20T12:06:29.530Z,48.60
2019-05-20T12:09:17.420Z,48.70
2019-05-20T12:12:04.437Z,48.90
2019-05-20T12:14:51.597Z,49.00
2019-05-20T12:22:02.596Z,49.10
2019-05-20T15:46:30.350Z,50.30
2019-05-20T15:49:17.059Z,50.10
2019-05-20T15:52:03.494Z,50.20
2019-05-20T15:54:49.937Z,50.30
2019-05-20T15:57:36.598Z,50.40
2019-05-20T16:00:32.064Z,50.50
2019-05-20T16:03:21.187Z,50.50
2019-05-20T16:06:09.986Z,50.40
2019-05-20T16:09:08.104Z,50.30
2019-05-20T16:12:04.206Z,50.40
2019-05-20T16:14:51.765Z,50.40
2019-05-20T16:17:42.714Z,50.40
2019-05-20T16:24:35.787Z,50.30
2019-05-20T16:27:57.547Z,50.10
2019-05-20T16:30:29.131Z,50.00
2019-05-20T16:33:38.663Z,50.00
2019-05-20T16:36:43.219Z,50.10
2019-05-20T16:44:20.538Z,50.00
2019-05-20T16:52:07.127Z,50.20
2019-05-20T19:19:00.047Z,51.10
2019-05-20T19:21:47.102Z,50.40
2019-05-20T19:24:34.053Z,50.50
2019-05-20T19:27:21.024Z,50.50
2019-05-20T19:30:08.439Z,50.60
2019-05-20T19:32:55.384Z,50.60
2019-05-20T19:35:42.145Z,50.60
2019-05-20T19:38:32.851Z,50.60
2019-05-20T19:41:17.662Z,50.60
2019-05-20T19:44:04.378Z,50.60
2019-05-20T19:46:50.780Z,50.60
2019-05-20T19:49:37.694Z,50.70
2019-05-20T19:52:24.473Z,50.70
2019-05-20T19:55:11.271Z,50.70
2019-05-20T19:57:58.266Z,50.70
2019-05-20T20:00:44.972Z,50.70
2019-05-20T20:03:31.836Z,50.90
2019-05-20T20:06:18.765Z,50.90
2019-05-20T20:09:06.147Z,51.00
2019-05-20T20:11:53.071Z,51.10
2019-05-20T20:14:39.556Z,51.00
2019-05-20T20:17:22.179Z,51.20
2019-05-20T20:20:08.651Z,51.20
2019-05-20T20:22:55.822Z,51.20
2019-05-20T20:25:42.652Z,51.30
2019-05-20T20:28:29.635Z,51.30
2019-05-20T20:31:16.716Z,51.30
2019-05-20T20:34:04.706Z,51.30
2019-05-20T20:36:51.462Z,51.30
2019-05-20T20:39:38.352Z,51.30
2019-05-20T20:42:25.337Z,51.40
2019-05-20T20:45:12.405Z,51.50
2019-05-20T20:47:59.380Z,51.40
2019-05-20T20:50:46.430Z,51.50
2019-05-20T20:53:33.378Z,51.50
2019-05-20T20:56:25.096Z,51.50
2019-05-20T20:59:09.595Z,51.60
2019-05-20T21:01:59.129Z,51.60
2019-05-20T21:04:45.333Z,51.60
2019-05-20T21:07:32.565Z,51.60
2019-05-20T21:10:19.448Z,51.50
2019-05-20T21:13:06.339Z,51.60
2019-05-20T21:15:53.274Z,51.60
2019-05-20T21:18:40.327Z,51.60
2019-05-20T21:21:27.150Z,51.60
2019-05-20T21:24:13.961Z,51.60
2019-05-20T21:27:00.983Z,51.60
2019-05-20T21:29:47.942Z,51.70
2019-05-20T21:32:35.126Z,51.70
2019-05-20T21:35:22.447Z,51.80
2019-05-20T21:38:08.975Z,51.80
2019-05-20T21:40:55.852Z,51.80
2019-05-20T21:43:44.996Z,51.80
2019-05-20T21:46:31.887Z,51.80
2019-05-20T21:49:18.675Z,51.80
2019-05-20T21:52:05.755Z,51.80
2019-05-20T21:54:56.017Z,51.90
2019-05-20T21:57:45.049Z,52.10
2019-05-20T22:00:42.058Z,51.80
2019-05-20T22:03:31.563Z,51.80
2019-05-20T22:06:18.783Z,51.80
2019-05-20T22:09:06.819Z,51.80
2019-05-20T22:11:53.682Z,51.90
2019-05-20T22:14:40.642Z,51.90
2019-05-20T22:17:27.991Z,51.90
2019-05-20T22:20:17.248Z,51.90
2019-05-20T22:23:25.681Z,51.90
2019-05-20T22:26:12.209Z,51.90
2019-05-20T22:28:59.243Z,52.10
2019-05-20T22:31:46.289Z,52.10
2019-05-20T22:34:33.102Z,52.10
2019-05-20T22:37:20.260Z,52.10
2019-05-20T22:40:07.621Z,52.10
2019-05-20T22:42:55.476Z,52.10
2019-05-20T22:45:42.138Z,52.20
2019-05-20T22:48:29.127Z,52.20
2019-05-20T22:51:16.376Z,52.20
2019-05-20T22:54:03.360Z,52.30
2019-05-20T22:56:50.444Z,52.20
2019-05-20T22:59:37.294Z,52.30
2019-05-20T23:02:24.180Z,52.20
2019-05-20T23:05:11.227Z,52.20
2019-05-20T23:07:58.898Z,52.20
2019-05-20T23:10:45.710Z,52.40
2019-05-20T23:13:32.232Z,52.30
2019-05-20T23:16:19.101Z,52.30
2019-05-20T23:19:06.002Z,52.40
2019-05-20T23:21:52.914Z,52.40
2019-05-20T23:24:39.976Z,52.50
2019-05-20T23:27:26.802Z,52.50
2019-05-20T23:30:13.732Z,52.50
2019-05-20T23:33:00.372Z,52.50
2019-05-20T23:35:47.291Z,52.50
2019-05-20T23:38:34.163Z,52.50
2019-05-20T23:41:21.186Z,52.50
2019-05-20T23:44:08.036Z,52.50
2019-05-20T23:46:55.096Z,52.60
2019-05-20T23:49:42.187Z,52.60
2019-05-20T23:52:29.047Z,52.60
2019-05-20T23:55:17.308Z,52.70
2019-05-20T23:58:03.890Z,52.70
